sensor_id;sensor_type;location;lat;lon;timestamp;P1;durP1;ratioP1;P2;durP2;ratioP2
4428;SDS011;2227;47.810;8.810;2022-08-19T03:45:13;21.55;;;16.52;;
4428;SDS011;2227;47.810;8.810;2022-08-19T03:47:40;23.35;;;17.75;;
4428;SDS011;2227;47.810;8.810;2022-08-19T03:50:07;22.63;;;18.00;;
4428;SDS011;2227;47.810;8.810;2022-08-19T03:52:35;24.00;;;18.10;;
4428;SDS011;2227;47.810;8.810;2022-08-19T03:55:02;23.17;;;17.52;;
4428;SDS011;2227;47.810;8.810;2022-08-19T03:57:29;25.65;;;18.50;;
4428;SDS011;2227;47.810;8.810;2022-08-19T03:59:57;21.85;;;17.42;;
4428;SDS011;2227;47.810;8.810;2022-08-19T04:02:39;22.33;;;17.30;;
4428;SDS011;2227;47.810;8.810;2022-08-19T04:05:06;22.33;;;18.13;;
4428;SDS011;2227;47.810;8.810;2022-08-19T04:07:34;22.35;;;18.38;;
4428;SDS011;2227;47.810;8.810;2022-08-19T04:10:02;23.27;;;17.13;;
4428;SDS011;2227;47.810;8.810;2022-08-19T04:12:30;22.27;;;18.00;;
4428;SDS011;2227;47.810;8.810;2022-08-19T04:14:57;22.65;;;18.15;;
4428;SDS011;2227;47.810;8.810;2022-08-19T04:17:24;23.80;;;18.48;;
4428;SDS011;2227;47.810;8.810;2022-08-19T04:19:51;23.38;;;18.90;;
4428;SDS011;2227;47.810;8.810;2022-08-19T04:22:18;23.88;;;18.95;;
4428;SDS011;2227;47.810;8.810;2022-08-19T04:24:45;23.55;;;18.40;;
4428;SDS011;2227;47.810;8.810;2022-08-19T04:27:12;23.73;;;18.15;;
4428;SDS011;2227;47.810;8.810;2022-08-19T04:29:39;22.60;;;18.33;;
4428;SDS011;2227;47.810;8.810;2022-08-19T04:32:06;23.25;;;17.10;;
4428;SDS011;2227;47.810;8.810;2022-08-19T04:34:34;23.95;;;18.02;;
4428;SDS011;2227;47.810;8.810;2022-08-19T04:37:21;21.65;;;17.20;;
4428;SDS011;2227;47.810;8.810;2022-08-19T04:39:49;21.85;;;18.00;;
4428;SDS011;2227;47.810;8.810;2022-08-19T04:42:34;23.40;;;18.35;;
4428;SDS011;2227;47.810;8.810;2022-08-19T04:45:08;23.50;;;18.08;;
4428;SDS011;2227;47.810;8.810;2022-08-19T04:47:38;23.67;;;18.38;;
4428;SDS011;2227;47.810;8.810;2022-08-19T04:50:23;23.13;;;18.73;;
4428;SDS011;2227;47.810;8.810;2022-08-19T04:52:51;21.67;;;18.25;;
4428;SDS011;2227;47.810;8.810;2022-08-19T04:55:18;21.75;;;18.38;;
4428;SDS011;2227;47.810;8.810;2022-08-19T04:57:45;24.60;;;18.75;;
4428;SDS011;2227;47.810;8.810;2022-08-19T05:00:12;23.48;;;18.50;;
4428;SDS011;2227;47.810;8.810;2022-08-19T05:02:39;23.77;;;18.20;;
4428;SDS011;2227;47.810;8.810;2022-08-19T05:05:06;23.95;;;18.45;;
4428;SDS011;2227;47.810;8.810;2022-08-19T05:07:33;21.67;;;17.45;;
4428;SDS011;2227;47.810;8.810;2022-08-19T05:10:01;24.58;;;19.00;;
4428;SDS011;2227;47.810;8.810;2022-08-19T05:12:30;23.50;;;18.88;;
4428;SDS011;2227;47.810;8.810;2022-08-19T05:14:58;21.13;;;18.23;;
4428;SDS011;2227;47.810;8.810;2022-08-19T05:17:26;21.42;;;18.45;;
4428;SDS011;2227;47.810;8.810;2022-08-19T05:19:58;23.92;;;19.23;;
4428;SDS011;2227;47.810;8.810;2022-08-19T05:22:43;24.42;;;19.75;;
4428;SDS011;2227;47.810;8.810;2022-08-19T05:25:13;21.98;;;17.60;;
4428;SDS011;2227;47.810;8.810;2022-08-19T05:27:44;21.73;;;17.33;;
4428;SDS011;2227;47.810;8.810;2022-08-19T05:30:12;22.58;;;18.63;;
4428;SDS011;2227;47.810;8.810;2022-08-19T05:32:39;23.17;;;18.25;;
4428;SDS011;2227;47.810;8.810;2022-08-19T05:35:06;24.02;;;18.85;;
4428;SDS011;2227;47.810;8.810;2022-08-19T05:37:34;21.13;;;18.00;;
4428;SDS011;2227;47.810;8.810;2022-08-19T05:40:01;21.45;;;17.70;;
4428;SDS011;2227;47.810;8.810;2022-08-19T05:42:29;21.83;;;18.65;;
4428;SDS011;2227;47.810;8.810;2022-08-19T05:44:56;25.30;;;18.88;;
4428;SDS011;2227;47.810;8.810;2022-08-19T05:47:23;20.08;;;17.65;;
4428;SDS011;2227;47.810;8.810;2022-08-19T05:49:50;20.10;;;17.85;;
4428;SDS011;2227;47.810;8.810;2022-08-19T05:52:17;21.42;;;18.85;;
4428;SDS011;2227;47.810;8.810;2022-08-19T05:54:51;25.55;;;20.67;;
4428;SDS011;2227;47.810;8.810;2022-08-19T05:57:21;19.13;;;17.10;;
4428;SDS011;2227;47.810;8.810;2022-08-19T05:59:48;20.60;;;18.17;;
4428;SDS011;2227;47.810;8.810;2022-08-19T06:02:23;20.55;;;18.33;;
4428;SDS011;2227;47.810;8.810;2022-08-19T06:04:51;20.95;;;17.73;;
4428;SDS011;2227;47.810;8.810;2022-08-19T06:07:18;21.27;;;18.77;;
4428;SDS011;2227;47.810;8.810;2022-08-19T06:09:45;23.55;;;19.02;;
4428;SDS011;2227;47.810;8.810;2022-08-19T06:12:26;21.05;;;18.30;;
4428;SDS011;2227;47.810;8.810;2022-08-19T06:14:54;21.38;;;18.70;;
4428;SDS011;2227;47.810;8.810;2022-08-19T06:17:27;22.42;;;17.92;;
4428;SDS011;2227;47.810;8.810;2022-08-19T06:19:57;21.48;;;18.48;;
4428;SDS011;2227;47.810;8.810;2022-08-19T06:22:25;23.27;;;19.58;;
4428;SDS011;2227;47.810;8.810;2022-08-19T06:24:53;23.73;;;18.95;;
4428;SDS011;2227;47.810;8.810;2022-08-19T06:27:21;22.38;;;18.48;;
4428;SDS011;2227;47.810;8.810;2022-08-19T06:29:48;22.42;;;18.38;;
4428;SDS011;2227;47.810;8.810;2022-08-19T06:32:16;21.40;;;18.40;;
4428;SDS011;2227;47.810;8.810;2022-08-19T06:34:45;20.65;;;18.45;;
4428;SDS011;2227;47.810;8.810;2022-08-19T06:37:12;20.08;;;17.20;;
4428;SDS011;2227;47.810;8.810;2022-08-19T06:39:40;18.38;;;16.48;;
4428;SDS011;2227;47.810;8.810;2022-08-19T06:42:08;20.25;;;16.83;;
4428;SDS011;2227;47.810;8.810;2022-08-19T06:44:43;20.88;;;17.10;;
4428;SDS011;2227;47.810;8.810;2022-08-19T06:47:19;20.90;;;17.13;;
4428;SDS011;2227;47.810;8.810;2022-08-19T06:49:57;20.88;;;17.58;;
4428;SDS011;2227;47.810;8.810;2022-08-19T06:52:31;22.08;;;17.25;;
4428;SDS011;2227;47.810;8.810;2022-08-19T06:55:02;21.92;;;18.10;;
4428;SDS011;2227;47.810;8.810;2022-08-19T06:57:32;20.98;;;16.70;;
4428;SDS011;2227;47.810;8.810;2022-08-19T06:59:59;19.00;;;16.55;;
4428;SDS011;2227;47.810;8.810;2022-08-19T07:02:26;20.92;;;17.70;;
4428;SDS011;2227;47.810;8.810;2022-08-19T07:04:53;19.95;;;16.92;;
4428;SDS011;2227;47.810;8.810;2022-08-19T07:07:22;20.83;;;17.33;;
4428;SDS011;2227;47.810;8.810;2022-08-19T07:09:50;18.90;;;16.60;;
4428;SDS011;2227;47.810;8.810;2022-08-19T07:12:27;20.52;;;17.08;;
4428;SDS011;2227;47.810;8.810;2022-08-19T07:15:00;21.98;;;17.23;;
4428;SDS011;2227;47.810;8.810;2022-08-19T07:17:28;20.02;;;16.50;;
4428;SDS011;2227;47.810;8.810;2022-08-19T07:19:56;20.15;;;16.92;;
4428;SDS011;2227;47.810;8.810;2022-08-19T07:22:30;21.08;;;18.20;;
4428;SDS011;2227;47.810;8.810;2022-08-19T07:24:58;20.23;;;17.17;;
4428;SDS011;2227;47.810;8.810;2022-08-19T07:27:26;23.80;;;17.55;;
4428;SDS011;2227;47.810;8.810;2022-08-19T07:29:53;21.88;;;17.95;;
4428;SDS011;2227;47.810;8.810;2022-08-19T07:32:22;20.88;;;17.38;;
4428;SDS011;2227;47.810;8.810;2022-08-19T07:34:53;21.88;;;16.77;;
4428;SDS011;2227;47.810;8.810;2022-08-19T07:37:22;20.52;;;17.55;;
4428;SDS011;2227;47.810;8.810;2022-08-19T07:39:58;21.90;;;17.77;;
4428;SDS011;2227;47.810;8.810;2022-08-19T07:42:25;22.23;;;17.95;;
4428;SDS011;2227;47.810;8.810;2022-08-19T07:44:52;23.60;;;18.35;;
4428;SDS011;2227;47.810;8.810;2022-08-19T07:47:19;21.92;;;17.38;;
4428;SDS011;2227;47.810;8.810;2022-08-19T07:50:07;23.20;;;18.27;;
4428;SDS011;2227;47.810;8.810;2022-08-19T07:52:37;25.17;;;18.85;;
4428;SDS011;2227;47.810;8.810;2022-08-19T07:55:06;23.60;;;18.48;;
4428;SDS011;2227;47.810;8.810;2022-08-19T07:57:55;22.13;;;17.85;;
4428;SDS011;2227;47.810;8.810;2022-08-19T08:00:22;23.02;;;18.05;;
4428;SDS011;2227;47.810;8.810;2022-08-19T08:02:50;22.02;;;17.83;;
4428;SDS011;2227;47.810;8.810;2022-08-19T08:05:21;23.75;;;18.52;;
4428;SDS011;2227;47.810;8.810;2022-08-19T08:08:09;24.02;;;17.88;;
4428;SDS011;2227;47.810;8.810;2022-08-19T08:10:55;24.65;;;20.17;;
4428;SDS011;2227;47.810;8.810;2022-08-19T08:13:23;23.75;;;18.88;;
4428;SDS011;2227;47.810;8.810;2022-08-19T08:15:51;24.73;;;18.95;;
4428;SDS011;2227;47.810;8.810;2022-08-19T08:18:21;22.45;;;18.33;;
4428;SDS011;2227;47.810;8.810;2022-08-19T08:20:53;23.95;;;18.77;;
4428;SDS011;2227;47.810;8.810;2022-08-19T08:23:21;24.83;;;18.13;;
4428;SDS011;2227;47.810;8.810;2022-08-19T08:25:48;22.67;;;18.45;;
4428;SDS011;2227;47.810;8.810;2022-08-19T08:28:16;22.92;;;18.02;;
4428;SDS011;2227;47.810;8.810;2022-08-19T08:30:44;25.27;;;18.98;;
4428;SDS011;2227;47.810;8.810;2022-08-19T08:33:18;26.38;;;19.98;;
4428;SDS011;2227;47.810;8.810;2022-08-19T08:36:06;21.50;;;17.55;;
4428;SDS011;2227;47.810;8.810;2022-08-19T08:38:33;24.83;;;19.23;;
4428;SDS011;2227;47.810;8.810;2022-08-19T08:41:11;23.63;;;19.37;;
4428;SDS011;2227;47.810;8.810;2022-08-19T08:43:45;27.25;;;20.77;;
4428;SDS011;2227;47.810;8.810;2022-08-19T08:46:22;23.58;;;18.83;;
4428;SDS011;2227;47.810;8.810;2022-08-19T08:52:22;24.55;;;18.67;;
4428;SDS011;2227;47.810;8.810;2022-08-19T08:54:58;25.70;;;19.33;;
4428;SDS011;2227;47.810;8.810;2022-08-19T09:00:22;25.55;;;19.35;;
4428;SDS011;2227;47.810;8.810;2022-08-19T09:02:54;23.87;;;19.17;;
4428;SDS011;2227;47.810;8.810;2022-08-19T09:05:25;26.95;;;19.75;;
4428;SDS011;2227;47.810;8.810;2022-08-19T09:08:30;23.95;;;17.70;;
4428;SDS011;2227;47.810;8.810;2022-08-19T09:11:10;26.55;;;19.15;;
4428;SDS011;2227;47.810;8.810;2022-08-19T09:14:18;22.50;;;17.90;;
4428;SDS011;2227;47.810;8.810;2022-08-19T09:17:09;23.13;;;17.67;;
4428;SDS011;2227;47.810;8.810;2022-08-19T09:19:46;23.27;;;18.60;;
4428;SDS011;2227;47.810;8.810;2022-08-19T09:22:19;22.88;;;17.77;;
4428;SDS011;2227;47.810;8.810;2022-08-19T09:24:51;25.40;;;18.48;;
4428;SDS011;2227;47.810;8.810;2022-08-19T09:27:19;25.00;;;18.13;;
4428;SDS011;2227;47.810;8.810;2022-08-19T09:30:14;21.85;;;18.25;;
4428;SDS011;2227;47.810;8.810;2022-08-19T09:32:43;25.08;;;18.80;;
4428;SDS011;2227;47.810;8.810;2022-08-19T09:35:11;24.85;;;20.08;;
4428;SDS011;2227;47.810;8.810;2022-08-19T09:37:39;24.75;;;18.58;;
4428;SDS011;2227;47.810;8.810;2022-08-19T09:40:08;23.60;;;18.75;;
4428;SDS011;2227;47.810;8.810;2022-08-19T09:42:37;24.60;;;18.92;;
4428;SDS011;2227;47.810;8.810;2022-08-19T09:45:16;25.00;;;19.27;;
4428;SDS011;2227;47.810;8.810;2022-08-19T09:47:48;25.27;;;20.92;;
4428;SDS011;2227;47.810;8.810;2022-08-19T09:50:19;25.90;;;19.48;;
4428;SDS011;2227;47.810;8.810;2022-08-19T09:52:47;25.30;;;20.15;;
4428;SDS011;2227;47.810;8.810;2022-08-19T09:55:23;25.25;;;20.05;;
4428;SDS011;2227;47.810;8.810;2022-08-19T09:57:58;25.75;;;21.00;;
4428;SDS011;2227;47.810;8.810;2022-08-19T10:00:26;25.73;;;19.13;;
4428;SDS011;2227;47.810;8.810;2022-08-19T10:02:52;25.60;;;18.52;;
4428;SDS011;2227;47.810;8.810;2022-08-19T10:05:19;26.10;;;20.60;;
4428;SDS011;2227;47.810;8.810;2022-08-19T10:08:07;26.65;;;20.95;;
4428;SDS011;2227;47.810;8.810;2022-08-19T10:10:39;28.27;;;21.73;;
4428;SDS011;2227;47.810;8.810;2022-08-19T10:13:12;27.73;;;20.92;;
4428;SDS011;2227;47.810;8.810;2022-08-19T10:15:40;28.92;;;22.27;;
4428;SDS011;2227;47.810;8.810;2022-08-19T10:18:13;29.47;;;21.73;;
4428;SDS011;2227;47.810;8.810;2022-08-19T10:20:43;31.23;;;22.60;;
4428;SDS011;2227;47.810;8.810;2022-08-19T10:23:17;27.95;;;21.23;;
4428;SDS011;2227;47.810;8.810;2022-08-19T10:25:46;28.00;;;22.00;;
4428;SDS011;2227;47.810;8.810;2022-08-19T10:28:13;28.92;;;21.40;;
4428;SDS011;2227;47.810;8.810;2022-08-19T10:30:40;30.85;;;22.17;;
4428;SDS011;2227;47.810;8.810;2022-08-19T10:33:08;29.70;;;22.13;;
4428;SDS011;2227;47.810;8.810;2022-08-19T10:35:36;30.95;;;23.77;;
4428;SDS011;2227;47.810;8.810;2022-08-19T10:38:08;30.75;;;23.60;;
4428;SDS011;2227;47.810;8.810;2022-08-19T10:40:35;35.55;;;23.90;;
4428;SDS011;2227;47.810;8.810;2022-08-19T10:43:02;30.45;;;24.15;;
4428;SDS011;2227;47.810;8.810;2022-08-19T10:45:29;31.40;;;23.63;;
4428;SDS011;2227;47.810;8.810;2022-08-19T10:47:56;30.17;;;23.75;;
4428;SDS011;2227;47.810;8.810;2022-08-19T10:50:23;33.13;;;24.02;;
4428;SDS011;2227;47.810;8.810;2022-08-19T10:53:08;31.85;;;22.95;;
4428;SDS011;2227;47.810;8.810;2022-08-19T10:55:35;33.78;;;23.42;;
4428;SDS011;2227;47.810;8.810;2022-08-19T10:58:21;32.85;;;24.17;;
4428;SDS011;2227;47.810;8.810;2022-08-19T11:00:52;31.85;;;23.38;;
4428;SDS011;2227;47.810;8.810;2022-08-19T11:03:20;30.00;;;23.33;;
4428;SDS011;2227;47.810;8.810;2022-08-19T11:05:56;33.08;;;23.55;;
4428;SDS011;2227;47.810;8.810;2022-08-19T11:08:27;30.48;;;22.58;;
4428;SDS011;2227;47.810;8.810;2022-08-19T11:10:54;33.53;;;23.88;;
4428;SDS011;2227;47.810;8.810;2022-08-19T11:13:23;29.20;;;22.42;;
4428;SDS011;2227;47.810;8.810;2022-08-19T11:15:57;31.00;;;23.25;;
4428;SDS011;2227;47.810;8.810;2022-08-19T11:18:32;31.48;;;23.10;;
4428;SDS011;2227;47.810;8.810;2022-08-19T11:21:11;28.90;;;23.38;;
4428;SDS011;2227;47.810;8.810;2022-08-19T11:23:43;31.63;;;22.33;;
4428;SDS011;2227;47.810;8.810;2022-08-19T11:26:11;30.00;;;23.45;;
4428;SDS011;2227;47.810;8.810;2022-08-19T11:28:38;33.13;;;24.33;;
4428;SDS011;2227;47.810;8.810;2022-08-19T11:31:12;31.25;;;24.80;;
4428;SDS011;2227;47.810;8.810;2022-08-19T11:33:44;29.35;;;22.58;;
4428;SDS011;2227;47.810;8.810;2022-08-19T11:36:13;33.08;;;23.92;;
4428;SDS011;2227;47.810;8.810;2022-08-19T11:38:41;33.47;;;24.10;;
4428;SDS011;2227;47.810;8.810;2022-08-19T11:41:08;30.73;;;23.58;;
4428;SDS011;2227;47.810;8.810;2022-08-19T11:43:35;31.88;;;23.48;;
4428;SDS011;2227;47.810;8.810;2022-08-19T11:46:04;32.08;;;24.70;;
4428;SDS011;2227;47.810;8.810;2022-08-19T11:48:33;30.40;;;24.27;;
4428;SDS011;2227;47.810;8.810;2022-08-19T11:51:03;31.80;;;24.70;;
4428;SDS011;2227;47.810;8.810;2022-08-19T11:53:35;31.75;;;23.20;;
4428;SDS011;2227;47.810;8.810;2022-08-19T11:56:03;31.45;;;23.75;;
4428;SDS011;2227;47.810;8.810;2022-08-19T11:58:32;30.23;;;23.50;;
4428;SDS011;2227;47.810;8.810;2022-08-19T12:01:00;28.23;;;22.52;;
4428;SDS011;2227;47.810;8.810;2022-08-19T12:03:26;31.83;;;22.23;;
4428;SDS011;2227;47.810;8.810;2022-08-19T12:05:54;30.58;;;22.77;;
4428;SDS011;2227;47.810;8.810;2022-08-19T12:08:21;27.20;;;21.75;;
4428;SDS011;2227;47.810;8.810;2022-08-19T12:10:47;30.05;;;23.27;;
4428;SDS011;2227;47.810;8.810;2022-08-19T12:13:14;30.98;;;24.15;;
4428;SDS011;2227;47.810;8.810;2022-08-19T12:15:45;31.08;;;22.90;;
4428;SDS011;2227;47.810;8.810;2022-08-19T12:18:13;28.65;;;22.23;;
4428;SDS011;2227;47.810;8.810;2022-08-19T12:20:41;29.30;;;23.20;;
4428;SDS011;2227;47.810;8.810;2022-08-19T12:23:09;29.48;;;24.05;;
4428;SDS011;2227;47.810;8.810;2022-08-19T12:25:36;28.35;;;23.25;;
4428;SDS011;2227;47.810;8.810;2022-08-19T12:30:37;29.17;;;23.05;;
4428;SDS011;2227;47.810;8.810;2022-08-19T12:33:04;27.73;;;21.40;;
4428;SDS011;2227;47.810;8.810;2022-08-19T12:35:30;28.65;;;23.35;;
4428;SDS011;2227;47.810;8.810;2022-08-19T12:37:57;28.63;;;22.45;;
4428;SDS011;2227;47.810;8.810;2022-08-19T12:40:26;27.75;;;22.50;;
4428;SDS011;2227;47.810;8.810;2022-08-19T12:42:53;27.05;;;22.10;;
4428;SDS011;2227;47.810;8.810;2022-08-19T12:45:20;28.08;;;22.05;;
4428;SDS011;2227;47.810;8.810;2022-08-19T12:47:48;27.90;;;21.88;;
4428;SDS011;2227;47.810;8.810;2022-08-19T12:50:20;28.40;;;22.17;;
4428;SDS011;2227;47.810;8.810;2022-08-19T12:52:47;29.00;;;21.20;;
4428;SDS011;2227;47.810;8.810;2022-08-19T12:55:14;27.05;;;20.63;;
4428;SDS011;2227;47.810;8.810;2022-08-19T12:57:41;24.95;;;19.95;;
4428;SDS011;2227;47.810;8.810;2022-08-19T13:00:09;24.98;;;21.00;;
4428;SDS011;2227;47.810;8.810;2022-08-19T13:05:13;24.30;;;19.77;;
4428;SDS011;2227;47.810;8.810;2022-08-19T13:07:42;26.60;;;20.48;;
4428;SDS011;2227;47.810;8.810;2022-08-19T13:10:10;25.05;;;19.98;;
4428;SDS011;2227;47.810;8.810;2022-08-19T13:12:38;25.70;;;21.02;;
4428;SDS011;2227;47.810;8.810;2022-08-19T13:15:07;23.23;;;19.50;;
4428;SDS011;2227;47.810;8.810;2022-08-19T13:17:36;24.00;;;19.95;;
4428;SDS011;2227;47.810;8.810;2022-08-19T13:20:04;26.33;;;21.48;;
4428;SDS011;2227;47.810;8.810;2022-08-19T13:22:34;25.60;;;20.35;;
4428;SDS011;2227;47.810;8.810;2022-08-19T13:25:05;26.25;;;21.25;;
4428;SDS011;2227;47.810;8.810;2022-08-19T13:27:33;24.60;;;21.33;;
4428;SDS011;2227;47.810;8.810;2022-08-19T13:30:00;25.33;;;21.30;;
4428;SDS011;2227;47.810;8.810;2022-08-19T13:32:47;24.67;;;20.80;;
4428;SDS011;2227;47.810;8.810;2022-08-19T13:35:32;24.02;;;21.23;;
4428;SDS011;2227;47.810;8.810;2022-08-19T13:37:59;25.33;;;20.55;;
4428;SDS011;2227;47.810;8.810;2022-08-19T13:40:26;26.77;;;21.20;;
4428;SDS011;2227;47.810;8.810;2022-08-19T13:42:55;26.02;;;20.77;;
4428;SDS011;2227;47.810;8.810;2022-08-19T13:45:23;29.77;;;23.40;;
4428;SDS011;2227;47.810;8.810;2022-08-19T13:47:52;29.60;;;23.55;;
4428;SDS011;2227;47.810;8.810;2022-08-19T13:50:26;28.00;;;22.58;;
4428;SDS011;2227;47.810;8.810;2022-08-19T13:52:55;29.63;;;22.60;;
4428;SDS011;2227;47.810;8.810;2022-08-19T13:55:22;29.40;;;22.33;;
4428;SDS011;2227;47.810;8.810;2022-08-19T13:57:54;30.50;;;24.38;;
4428;SDS011;2227;47.810;8.810;2022-08-19T14:00:23;31.45;;;24.98;;
4428;SDS011;2227;47.810;8.810;2022-08-19T14:02:53;31.60;;;25.33;;
4428;SDS011;2227;47.810;8.810;2022-08-19T14:05:22;31.40;;;24.20;;
4428;SDS011;2227;47.810;8.810;2022-08-19T14:07:50;33.30;;;25.92;;
4428;SDS011;2227;47.810;8.810;2022-08-19T14:10:17;37.75;;;27.17;;
4428;SDS011;2227;47.810;8.810;2022-08-19T14:12:45;36.58;;;28.48;;
4428;SDS011;2227;47.810;8.810;2022-08-19T14:15:12;37.20;;;29.73;;
4428;SDS011;2227;47.810;8.810;2022-08-19T14:17:41;34.97;;;28.27;;
4428;SDS011;2227;47.810;8.810;2022-08-19T14:20:09;39.55;;;29.45;;
4428;SDS011;2227;47.810;8.810;2022-08-19T14:22:43;39.55;;;30.05;;
4428;SDS011;2227;47.810;8.810;2022-08-19T14:25:13;38.97;;;29.67;;
4428;SDS011;2227;47.810;8.810;2022-08-19T14:27:42;42.03;;;30.92;;
4428;SDS011;2227;47.810;8.810;2022-08-19T14:30:10;37.80;;;29.20;;
4428;SDS011;2227;47.810;8.810;2022-08-19T14:32:40;39.70;;;31.23;;
4428;SDS011;2227;47.810;8.810;2022-08-19T14:35:09;42.33;;;31.08;;
4428;SDS011;2227;47.810;8.810;2022-08-19T14:37:38;39.15;;;30.10;;
4428;SDS011;2227;47.810;8.810;2022-08-19T14:40:12;41.73;;;30.93;;
4428;SDS011;2227;47.810;8.810;2022-08-19T14:42:40;42.63;;;31.08;;
4428;SDS011;2227;47.810;8.810;2022-08-19T14:45:08;42.53;;;31.77;;
4428;SDS011;2227;47.810;8.810;2022-08-19T14:47:36;45.20;;;33.33;;
4428;SDS011;2227;47.810;8.810;2022-08-19T14:50:06;42.20;;;31.40;;
4428;SDS011;2227;47.810;8.810;2022-08-19T14:52:36;41.95;;;32.70;;
4428;SDS011;2227;47.810;8.810;2022-08-19T14:55:03;44.67;;;33.85;;
4428;SDS011;2227;47.810;8.810;2022-08-19T14:57:32;44.67;;;33.88;;
4428;SDS011;2227;47.810;8.810;2022-08-19T14:59:59;44.03;;;34.72;;
4428;SDS011;2227;47.810;8.810;2022-08-19T15:02:26;45.45;;;35.22;;
4428;SDS011;2227;47.810;8.810;2022-08-19T15:05:00;47.70;;;35.78;;
4428;SDS011;2227;47.810;8.810;2022-08-19T15:07:28;46.45;;;34.00;;
4428;SDS011;2227;47.810;8.810;2022-08-19T15:09:55;49.78;;;35.17;;
4428;SDS011;2227;47.810;8.810;2022-08-19T15:12:23;45.05;;;33.60;;
4428;SDS011;2227;47.810;8.810;2022-08-19T15:14:50;44.70;;;33.55;;
4428;SDS011;2227;47.810;8.810;2022-08-19T15:17:22;44.70;;;33.83;;
4428;SDS011;2227;47.810;8.810;2022-08-19T15:20:09;45.78;;;32.40;;
4428;SDS011;2227;47.810;8.810;2022-08-19T15:22:37;45.97;;;32.90;;
4428;SDS011;2227;47.810;8.810;2022-08-19T15:25:05;49.42;;;35.63;;
4428;SDS011;2227;47.810;8.810;2022-08-19T15:27:32;49.92;;;36.58;;
4428;SDS011;2227;47.810;8.810;2022-08-19T15:30:00;51.53;;;35.95;;
4428;SDS011;2227;47.810;8.810;2022-08-19T15:32:27;50.38;;;36.75;;
4428;SDS011;2227;47.810;8.810;2022-08-19T15:34:54;56.05;;;37.72;;
4428;SDS011;2227;47.810;8.810;2022-08-19T15:37:21;54.67;;;37.63;;
4428;SDS011;2227;47.810;8.810;2022-08-19T15:39:49;50.28;;;37.55;;
4428;SDS011;2227;47.810;8.810;2022-08-19T15:42:16;52.00;;;36.40;;
4428;SDS011;2227;47.810;8.810;2022-08-19T15:44:55;54.88;;;37.13;;
4428;SDS011;2227;47.810;8.810;2022-08-19T15:47:27;52.00;;;36.13;;
4428;SDS011;2227;47.810;8.810;2022-08-19T15:50:12;50.25;;;36.22;;
4428;SDS011;2227;47.810;8.810;2022-08-19T15:55:19;46.83;;;35.55;;
4428;SDS011;2227;47.810;8.810;2022-08-19T15:58:03;49.20;;;34.95;;
4428;SDS011;2227;47.810;8.810;2022-08-19T16:00:55;43.75;;;33.08;;
4428;SDS011;2227;47.810;8.810;2022-08-19T16:03:46;47.22;;;34.67;;
4428;SDS011;2227;47.810;8.810;2022-08-19T16:06:41;44.33;;;34.17;;
4428;SDS011;2227;47.810;8.810;2022-08-19T16:09:10;45.75;;;33.80;;
4428;SDS011;2227;47.810;8.810;2022-08-19T16:11:44;48.05;;;34.03;;
4428;SDS011;2227;47.810;8.810;2022-08-19T16:14:22;43.75;;;33.47;;
4428;SDS011;2227;47.810;8.810;2022-08-19T16:16:50;42.72;;;33.30;;
4428;SDS011;2227;47.810;8.810;2022-08-19T16:19:17;42.17;;;32.20;;
4428;SDS011;2227;47.810;8.810;2022-08-19T16:21:46;45.28;;;33.92;;
4428;SDS011;2227;47.810;8.810;2022-08-19T16:24:16;46.95;;;33.88;;
4428;SDS011;2227;47.810;8.810;2022-08-19T16:26:44;47.92;;;33.22;;
4428;SDS011;2227;47.810;8.810;2022-08-19T16:29:11;44.75;;;33.75;;
4428;SDS011;2227;47.810;8.810;2022-08-19T16:31:39;44.78;;;33.10;;
4428;SDS011;2227;47.810;8.810;2022-08-19T16:34:09;44.08;;;32.47;;
4428;SDS011;2227;47.810;8.810;2022-08-19T16:36:37;41.17;;;31.70;;
4428;SDS011;2227;47.810;8.810;2022-08-19T16:39:09;43.47;;;32.90;;
4428;SDS011;2227;47.810;8.810;2022-08-19T16:41:37;42.30;;;33.67;;
4428;SDS011;2227;47.810;8.810;2022-08-19T16:44:05;40.78;;;31.67;;
4428;SDS011;2227;47.810;8.810;2022-08-19T16:46:33;40.63;;;32.35;;
4428;SDS011;2227;47.810;8.810;2022-08-19T16:49:03;39.42;;;31.60;;
4428;SDS011;2227;47.810;8.810;2022-08-19T16:51:30;37.15;;;30.35;;
4428;SDS011;2227;47.810;8.810;2022-08-19T16:53:59;38.67;;;29.42;;
4428;SDS011;2227;47.810;8.810;2022-08-19T16:56:26;40.25;;;32.17;;
4428;SDS011;2227;47.810;8.810;2022-08-19T16:58:54;38.70;;;29.98;;
4428;SDS011;2227;47.810;8.810;2022-08-19T17:01:22;35.70;;;28.42;;
4428;SDS011;2227;47.810;8.810;2022-08-19T17:03:49;36.47;;;29.88;;
4428;SDS011;2227;47.810;8.810;2022-08-19T17:06:19;32.45;;;26.35;;
4428;SDS011;2227;47.810;8.810;2022-08-19T17:08:52;32.10;;;26.02;;
4428;SDS011;2227;47.810;8.810;2022-08-19T17:11:21;30.95;;;25.80;;
4428;SDS011;2227;47.810;8.810;2022-08-19T17:13:50;29.08;;;24.33;;
4428;SDS011;2227;47.810;8.810;2022-08-19T17:16:18;28.70;;;24.42;;
4428;SDS011;2227;47.810;8.810;2022-08-19T17:18:47;28.15;;;23.88;;
4428;SDS011;2227;47.810;8.810;2022-08-19T17:21:21;32.97;;;25.80;;
4428;SDS011;2227;47.810;8.810;2022-08-19T17:23:53;34.03;;;27.10;;
4428;SDS011;2227;47.810;8.810;2022-08-19T17:26:23;27.08;;;23.40;;
4428;SDS011;2227;47.810;8.810;2022-08-19T17:28:52;27.85;;;24.85;;
4428;SDS011;2227;47.810;8.810;2022-08-19T17:31:22;30.05;;;24.45;;
4428;SDS011;2227;47.810;8.810;2022-08-19T17:33:50;26.27;;;23.20;;
4428;SDS011;2227;47.810;8.810;2022-08-19T17:36:21;25.48;;;22.73;;
4428;SDS011;2227;47.810;8.810;2022-08-19T17:38:51;29.08;;;23.33;;
4428;SDS011;2227;47.810;8.810;2022-08-19T17:41:20;26.83;;;22.98;;
4428;SDS011;2227;47.810;8.810;2022-08-19T17:43:49;23.00;;;20.52;;
4428;SDS011;2227;47.810;8.810;2022-08-19T17:46:16;22.38;;;19.85;;
4428;SDS011;2227;47.810;8.810;2022-08-19T17:48:45;22.38;;;19.85;;
4428;SDS011;2227;47.810;8.810;2022-08-19T17:54:08;23.92;;;20.33;;
4428;SDS011;2227;47.810;8.810;2022-08-19T17:56:37;22.33;;;19.08;;
4428;SDS011;2227;47.810;8.810;2022-08-19T17:59:04;21.25;;;18.60;;
4428;SDS011;2227;47.810;8.810;2022-08-19T18:01:39;21.10;;;18.85;;
4428;SDS011;2227;47.810;8.810;2022-08-19T18:04:19;20.65;;;18.52;;
4428;SDS011;2227;47.810;8.810;2022-08-19T18:06:51;22.50;;;18.58;;
4428;SDS011;2227;47.810;8.810;2022-08-19T18:09:24;21.95;;;19.65;;
4428;SDS011;2227;47.810;8.810;2022-08-19T18:12:04;23.33;;;19.25;;
4428;SDS011;2227;47.810;8.810;2022-08-19T18:14:33;22.58;;;18.98;;
4428;SDS011;2227;47.810;8.810;2022-08-19T18:17:03;22.33;;;19.60;;
4428;SDS011;2227;47.810;8.810;2022-08-19T18:19:35;21.30;;;18.52;;
4428;SDS011;2227;47.810;8.810;2022-08-19T18:22:27;20.35;;;18.17;;
4428;SDS011;2227;47.810;8.810;2022-08-19T18:25:03;22.73;;;19.67;;
4428;SDS011;2227;47.810;8.810;2022-08-19T18:27:35;24.27;;;20.40;;
4428;SDS011;2227;47.810;8.810;2022-08-19T18:30:03;22.38;;;20.05;;
4428;SDS011;2227;47.810;8.810;2022-08-19T18:32:31;21.77;;;19.45;;
4428;SDS011;2227;47.810;8.810;2022-08-19T18:35:00;21.77;;;18.42;;
4428;SDS011;2227;47.810;8.810;2022-08-19T18:37:28;22.85;;;19.83;;
4428;SDS011;2227;47.810;8.810;2022-08-19T18:39:55;21.52;;;19.33;;
4428;SDS011;2227;47.810;8.810;2022-08-19T18:42:42;23.77;;;20.15;;
4428;SDS011;2227;47.810;8.810;2022-08-19T18:45:28;22.42;;;19.35;;
4428;SDS011;2227;47.810;8.810;2022-08-19T18:48:14;22.63;;;18.92;;
4428;SDS011;2227;47.810;8.810;2022-08-19T18:50:59;21.40;;;18.70;;
4428;SDS011;2227;47.810;8.810;2022-08-19T18:53:28;23.45;;;20.02;;
4428;SDS011;2227;47.810;8.810;2022-08-19T18:55:57;22.25;;;19.25;;
4428;SDS011;2227;47.810;8.810;2022-08-19T18:58:25;22.20;;;19.48;;
4428;SDS011;2227;47.810;8.810;2022-08-19T19:00:57;22.02;;;19.38;;
4428;SDS011;2227;47.810;8.810;2022-08-19T19:03:36;22.35;;;19.02;;
4428;SDS011;2227;47.810;8.810;2022-08-19T19:06:06;22.38;;;19.48;;
4428;SDS011;2227;47.810;8.810;2022-08-19T19:08:33;21.70;;;19.40;;
4428;SDS011;2227;47.810;8.810;2022-08-19T19:11:03;23.13;;;20.63;;